createdAt,value
2019-05-21T00:00:40.002Z,43.57
2019-05-21T00:03:13.439Z,43.56
2019-05-21T00:05:46.870Z,43.53
2019-05-21T00:08:20.414Z,43.55
2019-05-21T00:10:53.710Z,43.54
2019-05-21T00:13:27.046Z,43.56
2019-05-21T00:16:00.380Z,43.51
2019-05-21T00:18:33.740Z,43.57
2019-05-21T00:21:07.081Z,43.53
2019-05-21T00:23:40.409Z,43.53
2019-05-21T00:26:13.782Z,43.55
2019-05-21T00:29:23.949Z,43.56
2019-05-21T00:32:35.016Z,43.10
2019-05-21T00:35:44.783Z,43.34
2019-05-21T00:38:54.942Z,43.43
2019-05-21T00:42:00.108Z,43.55
2019-05-21T00:44:41.140Z,43.68
2019-05-21T00:47:14.533Z,43.67
2019-05-21T00:49:47.841Z,43.65
2019-05-21T00:52:21.182Z,43.65
2019-05-21T00:54:54.523Z,43.22
2019-05-21T00:57:29.401Z,43.41
2019-05-21T01:00:04.242Z,43.49
2019-05-21T01:02:37.685Z,43.46
2019-05-21T01:05:10.997Z,43.45
2019-05-21T01:07:44.330Z,43.51
2019-05-21T01:10:17.668Z,43.48
2019-05-21T01:12:51.014Z,43.49
2019-05-21T01:15:24.320Z,43.49
2019-05-21T01:17:57.684Z,43.47
2019-05-21T01:20:30.986Z,43.47
2019-05-21T01:23:04.347Z,43.53
2019-05-21T01:25:37.669Z,43.49
2019-05-21T01:28:11.007Z,43.16
2019-05-21T01:30:44.312Z,43.35
2019-05-21T01:33:18.633Z,43.42
2019-05-21T01:35:52.615Z,43.44
2019-05-21T01:38:25.960Z,43.46
2019-05-21T01:40:59.269Z,43.45
2019-05-21T01:43:32.609Z,43.46
2019-05-21T01:46:05.925Z,43.50
2019-05-21T01:48:39.273Z,43.52
2019-05-21T01:51:12.611Z,43.53
2019-05-21T01:53:45.831Z,43.53
2019-05-21T01:56:19.142Z,43.46
2019-05-21T01:58:52.305Z,43.52
2019-05-21T02:01:25.625Z,43.52
2019-05-21T02:03:59.008Z,43.55
2019-05-21T02:06:33.408Z,43.50
2019-05-21T02:09:07.361Z,43.52
2019-05-21T02:11:40.676Z,43.46
2019-05-21T02:14:14.012Z,43.52
2019-05-21T02:16:47.347Z,43.52
2019-05-21T02:19:20.691Z,43.49
2019-05-21T02:21:54.001Z,42.80
2019-05-21T02:24:27.345Z,43.19
2019-05-21T02:27:00.684Z,42.59
2019-05-21T02:29:34.053Z,42.95
2019-05-21T02:32:07.450Z,43.06
2019-05-21T02:34:40.795Z,43.11
2019-05-21T02:37:14.880Z,43.19
2019-05-21T02:39:48.239Z,43.01
2019-05-21T02:42:21.731Z,43.26
2019-05-21T02:44:55.068Z,43.29
2019-05-21T02:47:28.923Z,43.33
2019-05-21T02:50:03.129Z,43.31
2019-05-21T02:52:36.449Z,43.30
2019-05-21T02:55:09.830Z,43.32
2019-05-21T02:57:43.153Z,43.31
2019-05-21T03:00:17.136Z,43.32
2019-05-21T03:02:50.447Z,43.41
2019-05-21T03:05:23.811Z,43.39
2019-05-21T03:07:57.139Z,43.40
2019-05-21T03:10:30.496Z,43.37
2019-05-21T03:13:04.976Z,43.34
2019-05-21T03:15:38.393Z,43.32
2019-05-21T03:18:11.697Z,43.40
2019-05-21T03:20:45.039Z,43.32
2019-05-21T03:23:18.364Z,43.28
2019-05-21T03:25:51.729Z,43.37
2019-05-21T03:28:25.058Z,43.32
2019-05-21T03:30:58.400Z,43.03
2019-05-21T03:33:31.742Z,43.18
2019-05-21T03:36:06.134Z,43.26
2019-05-21T03:38:39.625Z,43.32
2019-05-21T03:41:12.999Z,43.34
2019-05-21T03:43:46.313Z,43.33
2019-05-21T03:46:19.676Z,43.32
2019-05-21T03:48:52.981Z,43.29
2019-05-21T03:51:26.321Z,43.33
2019-05-21T03:54:00.703Z,43.29
2019-05-21T03:56:34.011Z,43.27
2019-05-21T03:59:07.345Z,43.27
2019-05-21T04:01:40.802Z,42.87
2019-05-21T04:04:14.118Z,43.08
2019-05-21T04:06:51.800Z,43.13
2019-05-21T04:09:22.528Z,43.13
2019-05-21T04:11:55.831Z,43.18
2019-05-21T04:14:29.348Z,43.23
2019-05-21T04:17:02.670Z,42.92
2019-05-21T04:19:36.021Z,43.09
2019-05-21T04:22:12.647Z,43.17
2019-05-21T04:24:45.996Z,43.25
2019-05-21T04:27:20.937Z,43.19
2019-05-21T04:29:54.494Z,43.17
2019-05-21T04:32:27.812Z,42.69
2019-05-21T04:35:01.142Z,43.04
2019-05-21T04:37:34.470Z,43.10
2019-05-21T04:40:07.956Z,42.94
2019-05-21T04:42:41.291Z,43.06
2019-05-21T04:45:14.594Z,42.73
2019-05-21T04:47:48.168Z,42.79
2019-05-21T04:50:22.591Z,42.73
2019-05-21T04:52:55.785Z,42.70
2019-05-21T04:55:29.177Z,42.80
2019-05-21T04:58:02.676Z,42.74
2019-05-21T05:00:37.589Z,42.08
2019-05-21T05:03:10.901Z,42.40
2019-05-21T05:05:44.404Z,41.63
2019-05-21T05:08:17.745Z,42.14
2019-05-21T05:10:51.085Z,42.21
2019-05-21T05:13:24.401Z,42.36
2019-05-21T05:15:57.765Z,42.34
2019-05-21T05:18:31.216Z,42.67
2019-05-21T05:21:04.669Z,42.09
2019-05-21T05:23:38.004Z,42.30
2019-05-21T05:26:11.316Z,42.50
2019-05-21T05:28:44.712Z,42.44
2019-05-21T05:31:18.067Z,42.57
2019-05-21T05:33:52.475Z,42.58
2019-05-21T05:36:25.835Z,42.08
2019-05-21T05:38:59.128Z,42.51
2019-05-21T05:41:32.505Z,42.54
2019-05-21T05:44:05.823Z,42.52
2019-05-21T05:46:39.228Z,42.60
2019-05-21T05:49:12.739Z,42.39
2019-05-21T05:51:46.275Z,42.63
2019-05-21T05:54:19.618Z,42.59
2019-05-21T05:56:53.035Z,42.87
2019-05-21T05:59:26.432Z,42.47
2019-05-21T06:02:00.837Z,42.60
2019-05-21T06:04:34.144Z,42.23
2019-05-21T06:07:07.323Z,42.44
2019-05-21T06:09:40.630Z,42.62
2019-05-21T06:12:14.172Z,42.49
2019-05-21T06:14:47.563Z,42.43
2019-05-21T06:17:20.983Z,42.57
2019-05-21T06:19:55.377Z,42.57
2019-05-21T06:22:28.773Z,42.65
2019-05-21T06:25:02.258Z,42.83
2019-05-21T06:27:35.752Z,42.84
2019-05-21T06:30:09.075Z,42.92
2019-05-21T06:32:42.389Z,42.77
2019-05-21T06:35:15.690Z,42.57
2019-05-21T06:37:49.121Z,42.57
2019-05-21T06:40:22.688Z,42.57
2019-05-21T06:42:56.020Z,42.58
2019-05-21T06:45:30.432Z,42.36
2019-05-21T06:48:03.720Z,42.60
2019-05-21T06:50:37.716Z,42.21
2019-05-21T06:53:11.294Z,42.68
2019-05-21T06:55:44.681Z,42.75
2019-05-21T06:58:18.008Z,42.75
2019-05-21T07:00:51.340Z,42.75
2019-05-21T07:03:24.678Z,42.77
2019-05-21T07:05:59.434Z,42.13
2019-05-21T07:08:35.335Z,42.66
2019-05-21T07:11:10.395Z,42.65
2019-05-21T07:13:43.843Z,42.70
2019-05-21T07:16:17.173Z,42.93
2019-05-21T07:18:50.474Z,42.84
2019-05-21T07:21:23.831Z,42.07
2019-05-21T07:23:57.201Z,42.50
2019-05-21T07:26:30.568Z,42.68
2019-05-21T07:29:03.889Z,42.71
2019-05-21T07:31:38.309Z,42.84
2019-05-21T07:34:11.625Z,43.05
2019-05-21T07:36:44.976Z,42.33
2019-05-21T07:39:18.306Z,42.57
2019-05-21T07:41:51.652Z,42.65
2019-05-21T07:44:25.174Z,42.57
2019-05-21T07:46:58.513Z,42.56
2019-05-21T07:49:31.833Z,42.56
2019-05-21T07:52:05.187Z,42.54
2019-05-21T07:54:38.481Z,42.55
2019-05-21T07:57:11.827Z,42.52
2019-05-21T07:59:45.129Z,42.51
2019-05-21T08:02:18.498Z,42.55
2019-05-21T08:04:52.908Z,42.52
2019-05-21T08:07:26.256Z,42.49
2019-05-21T08:09:59.576Z,42.54
2019-05-21T08:12:38.749Z,42.59
2019-05-21T08:15:07.984Z,42.52
2019-05-21T08:17:41.357Z,42.94
2019-05-21T08:20:16.313Z,42.25
2019-05-21T08:22:49.710Z,42.66
2019-05-21T08:25:23.037Z,42.70
2019-05-21T08:27:56.206Z,42.85
2019-05-21T08:30:29.514Z,42.99
2019-05-21T08:33:02.878Z,42.73
2019-05-21T08:35:36.271Z,42.75
2019-05-21T08:38:09.628Z,42.88
2019-05-21T08:40:42.942Z,42.82
2019-05-21T08:43:16.286Z,42.82
2019-05-21T08:45:49.594Z,42.77
2019-05-21T08:48:23.572Z,42.79
2019-05-21T08:50:56.862Z,42.76
2019-05-21T08:53:30.243Z,42.73
2019-05-21T08:56:03.526Z,42.71
2019-05-21T08:58:36.855Z,42.74
2019-05-21T09:01:10.274Z,42.68
2019-05-21T09:03:43.658Z,42.72
2019-05-21T09:06:16.955Z,42.74
2019-05-21T09:08:50.278Z,42.75
2019-05-21T09:11:23.733Z,42.74
2019-05-21T09:13:57.110Z,42.72
2019-05-21T09:16:30.792Z,42.77
2019-05-21T09:19:04.215Z,42.69
2019-05-21T09:21:37.531Z,42.65
2019-05-21T09:24:10.896Z,42.68
2019-05-21T09:26:44.242Z,42.63
2019-05-21T09:29:17.589Z,42.62
2019-05-21T09:31:50.979Z,42.70
2019-05-21T09:34:24.326Z,42.65
2019-05-21T09:36:57.687Z,42.63
2019-05-21T09:39:31.214Z,42.69
2019-05-21T09:42:04.545Z,42.73
2019-05-21T09:44:37.897Z,42.65
2019-05-21T09:47:11.199Z,42.49
2019-05-21T09:49:44.574Z,42.55
2019-05-21T09:52:17.883Z,42.49
2019-05-21T09:54:51.445Z,42.43
2019-05-21T09:57:24.759Z,42.39
2019-05-21T09:59:58.090Z,42.34
2019-05-21T10:02:33.004Z,42.38
2019-05-21T10:05:06.376Z,42.24
2019-05-21T10:07:40.773Z,42.08
2019-05-21T10:10:14.342Z,42.13
2019-05-21T10:12:47.664Z,42.05
2019-05-21T10:15:21.026Z,41.91
2019-05-21T10:17:54.592Z,41.71
2019-05-21T10:20:27.790Z,41.58
2019-05-21T10:23:01.431Z,41.29
2019-05-21T10:25:35.005Z,41.07
2019-05-21T10:28:08.310Z,40.86
2019-05-21T10:30:41.647Z,40.04
2019-05-21T10:33:14.958Z,40.33
2019-05-21T10:35:48.300Z,40.18
2019-05-21T10:38:21.619Z,39.99
2019-05-21T10:40:54.949Z,39.95
2019-05-21T10:43:28.315Z,39.21
2019-05-21T10:46:01.678Z,39.55
2019-05-21T10:48:36.163Z,39.13
2019-05-21T10:51:09.802Z,38.95
2019-05-21T10:53:43.273Z,38.93
2019-05-21T10:56:16.637Z,38.81
2019-05-21T10:58:49.958Z,38.66
2019-05-21T11:01:23.305Z,38.49
2019-05-21T11:03:56.699Z,38.37
2019-05-21T11:06:30.244Z,38.49
2019-05-21T11:09:05.715Z,38.57
2019-05-21T11:11:39.433Z,38.49
2019-05-21T11:14:13.036Z,38.31
2019-05-21T11:16:46.389Z,38.41
2019-05-21T11:19:19.701Z,38.36
2019-05-21T11:21:53.047Z,38.20
2019-05-21T11:24:26.336Z,38.22
2019-05-21T11:27:04.614Z,38.18
2019-05-21T11:29:37.896Z,38.06
2019-05-21T11:32:11.220Z,38.12
2019-05-21T11:34:44.517Z,38.20
2019-05-21T11:37:17.943Z,37.97
2019-05-21T11:39:51.306Z,37.50
2019-05-21T11:42:24.683Z,37.83
2019-05-21T11:44:58.021Z,37.83
2019-05-21T11:47:31.314Z,37.42
2019-05-21T11:50:07.853Z,37.58
2019-05-21T11:52:41.165Z,37.79
2019-05-21T11:55:14.494Z,36.95
2019-05-21T11:57:47.797Z,37.47
2019-05-21T12:00:21.825Z,37.70
2019-05-21T12:02:55.249Z,37.75
2019-05-21T12:05:28.561Z,37.92
2019-05-21T12:08:01.861Z,37.95
2019-05-21T12:10:35.210Z,37.95
2019-05-21T12:13:08.606Z,38.00
2019-05-21T12:15:41.988Z,37.98
2019-05-21T12:18:16.382Z,37.99
2019-05-21T12:20:49.725Z,38.05
2019-05-21T12:23:23.031Z,37.29
2019-05-21T12:25:56.360Z,37.75
2019-05-21T12:28:29.687Z,37.96
2019-05-21T12:31:03.038Z,38.06
2019-05-21T12:33:36.389Z,38.09
2019-05-21T12:36:09.746Z,38.22
2019-05-21T12:38:43.059Z,38.27
2019-05-21T12:41:16.386Z,38.23
2019-05-21T12:43:49.685Z,38.04
2019-05-21T12:46:23.050Z,38.29
2019-05-21T12:48:56.576Z,37.82
2019-05-21T12:51:29.912Z,38.22
2019-05-21T12:54:03.249Z,38.29
2019-05-21T12:56:40.446Z,38.19
2019-05-21T12:59:11.669Z,38.54
2019-05-21T13:01:45.403Z,38.19
2019-05-21T13:04:18.730Z,38.33
2019-05-21T13:06:52.121Z,38.48
2019-05-21T13:09:32.738Z,38.50
2019-05-21T13:12:00.561Z,38.51
2019-05-21T13:14:33.948Z,38.53
2019-05-21T13:17:07.496Z,38.54
2019-05-21T13:19:41.043Z,38.57
2019-05-21T13:22:14.408Z,38.60
2019-05-21T13:24:47.820Z,38.56
2019-05-21T13:27:21.347Z,38.65
2019-05-21T13:29:54.704Z,38.64
2019-05-21T13:32:29.106Z,38.65
2019-05-21T13:35:03.390Z,38.66
2019-05-21T13:37:37.248Z,38.75
2019-05-21T13:40:10.586Z,38.79
2019-05-21T13:42:44.078Z,38.17
2019-05-21T13:45:18.293Z,38.58
2019-05-21T13:47:51.687Z,38.85
2019-05-21T13:50:26.027Z,38.87
2019-05-21T13:53:01.021Z,38.90
2019-05-21T13:55:34.364Z,38.68
2019-05-21T13:58:07.813Z,38.95
2019-05-21T14:00:41.162Z,39.06
2019-05-21T14:03:14.582Z,39.14
2019-05-21T14:05:47.909Z,39.11
2019-05-21T14:08:21.238Z,39.16
2019-05-21T14:10:55.633Z,39.16
2019-05-21T14:13:28.954Z,39.15
2019-05-21T14:16:02.614Z,39.20
2019-05-21T14:18:36.316Z,39.17
2019-05-21T14:21:09.672Z,39.45
2019-05-21T14:23:42.895Z,39.56
2019-05-21T14:26:16.291Z,39.58
2019-05-21T14:28:49.624Z,39.58
2019-05-21T14:31:22.972Z,39.61
2019-05-21T14:33:56.267Z,39.54
2019-05-21T14:36:29.607Z,39.59
2019-05-21T14:39:06.484Z,39.05
2019-05-21T14:41:40.013Z,39.38
2019-05-21T14:44:13.332Z,39.40
2019-05-21T14:46:46.685Z,39.43
2019-05-21T14:49:20.077Z,39.43
2019-05-21T14:51:55.030Z,39.54
2019-05-21T14:54:28.359Z,39.58
2019-05-21T14:57:01.714Z,39.65
2019-05-21T14:59:34.991Z,39.74
2019-05-21T15:02:08.671Z,39.93
2019-05-21T15:04:42.268Z,39.88
2019-05-21T15:07:16.376Z,39.94
2019-05-21T15:09:53.333Z,39.98
2019-05-21T15:12:24.770Z,40.05
2019-05-21T15:14:58.069Z,39.78
2019-05-21T15:17:31.420Z,39.83
2019-05-21T15:20:07.283Z,39.80
2019-05-21T15:22:40.603Z,39.80
2019-05-21T15:25:13.910Z,39.85
2019-05-21T15:27:47.294Z,39.94
2019-05-21T15:30:20.559Z,39.99
2019-05-21T15:32:54.074Z,39.97
2019-05-21T15:35:27.396Z,39.95
2019-05-21T15:38:01.509Z,40.08
2019-05-21T15:40:34.923Z,40.04
2019-05-21T15:43:08.293Z,40.21
2019-05-21T15:45:41.576Z,40.12
2019-05-21T15:48:14.926Z,40.17
2019-05-21T15:50:48.231Z,40.20
2019-05-21T15:53:21.602Z,40.16
2019-05-21T15:55:56.490Z,40.22
2019-05-21T15:58:29.823Z,40.31
2019-05-21T16:01:03.134Z,40.18
2019-05-21T16:03:36.474Z,40.20
2019-05-21T16:06:09.795Z,40.23
2019-05-21T16:08:43.164Z,40.26
2019-05-21T16:11:28.056Z,40.27
2019-05-21T16:13:51.471Z,40.36
2019-05-21T16:16:24.802Z,40.27
2019-05-21T16:18:58.251Z,40.35
2019-05-21T16:21:31.613Z,40.25
2019-05-21T16:24:04.944Z,40.34
2019-05-21T16:26:38.315Z,40.39
2019-05-21T16:29:11.626Z,40.37
2019-05-21T16:31:44.984Z,40.31
2019-05-21T16:34:18.472Z,40.38
2019-05-21T16:36:52.213Z,40.33
2019-05-21T16:39:25.341Z,40.36
2019-05-21T16:41:58.864Z,40.34
2019-05-21T16:44:32.252Z,40.32
2019-05-21T16:47:05.712Z,40.29
2019-05-21T16:49:39.044Z,40.44
2019-05-21T16:52:12.741Z,40.02
2019-05-21T16:54:46.146Z,40.29
2019-05-21T16:57:19.559Z,40.34
2019-05-21T16:59:52.932Z,40.43
2019-05-21T17:02:26.288Z,40.44
2019-05-21T17:04:59.623Z,40.23
2019-05-21T17:07:33.552Z,40.66
2019-05-21T17:10:06.942Z,40.71
2019-05-21T17:12:40.287Z,40.33
2019-05-21T17:15:13.620Z,40.88
2019-05-21T17:17:46.964Z,41.11
2019-05-21T17:20:20.285Z,41.40
2019-05-21T17:22:53.632Z,40.98
2019-05-21T17:25:27.118Z,41.04
2019-05-21T17:28:00.502Z,41.28
2019-05-21T17:30:35.017Z,41.28
2019-05-21T17:33:08.438Z,41.25
2019-05-21T17:35:41.755Z,41.33
2019-05-21T17:38:15.186Z,41.38
2019-05-21T17:40:48.520Z,41.53
2019-05-21T17:43:21.914Z,41.76
2019-05-21T17:45:55.320Z,41.37
2019-05-21T17:48:28.782Z,41.50
2019-05-21T17:51:02.107Z,41.66
2019-05-21T17:53:35.525Z,41.68
2019-05-21T17:56:08.859Z,41.96
2019-05-21T17:58:43.824Z,41.82
2019-05-21T18:01:17.216Z,41.60
2019-05-21T18:03:50.605Z,41.28
2019-05-21T18:06:23.917Z,41.53
2019-05-21T18:08:57.354Z,41.71
2019-05-21T18:11:30.670Z,41.61
2019-05-21T18:14:04.011Z,41.66
2019-05-21T18:16:37.878Z,41.32
2019-05-21T18:19:11.516Z,41.58
2019-05-21T18:21:44.932Z,41.60
2019-05-21T18:24:18.265Z,41.30
2019-05-21T18:26:51.622Z,41.51
2019-05-21T18:29:26.024Z,41.43
2019-05-21T18:31:59.372Z,41.67
2019-05-21T18:34:32.774Z,41.64
2019-05-21T18:37:06.240Z,41.64
2019-05-21T18:39:42.332Z,41.80
2019-05-21T18:42:22.267Z,41.96
2019-05-21T18:44:50.798Z,41.75
2019-05-21T18:47:24.120Z,41.75
2019-05-21T18:49:57.436Z,41.80
2019-05-21T18:52:30.769Z,41.74
2019-05-21T18:55:05.639Z,41.81
2019-05-21T18:57:39.050Z,41.69
2019-05-21T19:00:12.716Z,41.76
2019-05-21T19:02:46.082Z,42.11
2019-05-21T19:05:19.489Z,42.15
2019-05-21T19:07:53.155Z,42.14
2019-05-21T19:10:26.685Z,42.09
2019-05-21T19:13:02.935Z,42.16
2019-05-21T19:15:36.478Z,42.35
2019-05-21T19:18:09.809Z,42.30
2019-05-21T19:20:43.115Z,42.38
2019-05-21T19:23:16.535Z,42.21
2019-05-21T19:25:49.901Z,42.23
2019-05-21T19:28:23.252Z,42.01
2019-05-21T19:30:56.557Z,42.24
2019-05-21T19:33:29.892Z,42.14
2019-05-21T19:36:03.208Z,42.02
2019-05-21T19:38:37.345Z,42.23
2019-05-21T19:41:10.805Z,42.28
2019-05-21T19:43:44.349Z,42.27
2019-05-21T19:46:17.650Z,42.36
2019-05-21T19:48:51.017Z,42.22
2019-05-21T19:51:24.345Z,42.26
2019-05-21T19:53:57.628Z,42.24
2019-05-21T19:56:31.071Z,41.64
2019-05-21T19:59:04.617Z,42.13
2019-05-21T20:01:38.413Z,42.06
2019-05-21T20:04:11.725Z,42.18
2019-05-21T20:06:45.151Z,42.33
2019-05-21T20:09:18.520Z,42.37
2019-05-21T20:11:52.090Z,42.32
2019-05-21T20:14:25.406Z,42.26
2019-05-21T20:16:58.918Z,42.13
2019-05-21T20:19:32.369Z,42.29
2019-05-21T20:22:05.709Z,42.19
2019-05-21T20:24:39.993Z,42.23
2019-05-21T20:27:13.414Z,42.58
2019-05-21T20:29:47.066Z,42.21
2019-05-21T20:32:20.401Z,42.27
2019-05-21T20:34:53.698Z,42.39
2019-05-21T20:37:27.331Z,41.78
2019-05-21T20:40:01.776Z,42.26
2019-05-21T20:42:36.137Z,42.39
2019-05-21T20:45:09.894Z,41.88
2019-05-21T20:47:43.229Z,42.12
2019-05-21T20:50:16.531Z,41.96
2019-05-21T20:52:49.911Z,42.07
2019-05-21T20:55:23.240Z,42.29
2019-05-21T20:57:56.847Z,42.19
2019-05-21T21:00:30.348Z,42.29
2019-05-21T21:03:03.744Z,42.58
2019-05-21T21:05:37.066Z,42.63
2019-05-21T21:08:10.776Z,42.55
2019-05-21T21:10:44.158Z,42.44
2019-05-21T21:13:17.490Z,42.48
2019-05-21T21:15:50.863Z,42.24
2019-05-21T21:18:25.925Z,41.83
2019-05-21T21:20:59.239Z,42.20
2019-05-21T21:23:32.592Z,42.31
2019-05-21T21:26:05.891Z,41.90
2019-05-21T21:28:39.426Z,42.15
2019-05-21T21:31:12.727Z,42.07
2019-05-21T21:33:46.079Z,42.16
2019-05-21T21:36:19.380Z,42.20
2019-05-21T21:38:52.984Z,42.33
2019-05-21T21:41:26.465Z,42.33
2019-05-21T21:44:00.443Z,42.43
2019-05-21T21:46:33.782Z,41.71
2019-05-21T21:49:07.113Z,42.09
2019-05-21T21:51:40.448Z,42.24
2019-05-21T21:54:14.818Z,41.80
2019-05-21T21:56:48.342Z,42.01
2019-05-21T21:59:21.646Z,42.12
2019-05-21T22:02:07.434Z,42.20
2019-05-21T22:04:40.908Z,42.26
2019-05-21T22:07:14.209Z,42.26
2019-05-21T22:09:47.610Z,42.24
2019-05-21T22:12:20.924Z,42.27
2019-05-21T22:14:56.502Z,42.21
2019-05-21T22:17:29.839Z,42.22
2019-05-21T22:20:05.751Z,42.23
2019-05-21T22:22:39.063Z,42.20
2019-05-21T22:25:12.421Z,42.14
2019-05-21T22:27:45.733Z,42.12
2019-05-21T22:30:19.082Z,42.06
2019-05-21T22:32:53.471Z,42.18
2019-05-21T22:35:26.809Z,41.83
2019-05-21T22:38:00.117Z,41.93
2019-05-21T22:40:33.436Z,41.94
2019-05-21T22:43:06.773Z,41.91
2019-05-21T22:45:40.154Z,41.87
2019-05-21T22:48:13.480Z,41.75
2019-05-21T22:50:46.821Z,41.70
2019-05-21T22:53:20.164Z,41.78
2019-05-21T22:55:53.514Z,41.77
2019-05-21T22:58:26.814Z,41.74
2019-05-21T23:01:01.761Z,41.73
2019-05-21T23:03:35.066Z,41.28
2019-05-21T23:06:08.387Z,41.56
2019-05-21T23:08:41.725Z,41.56
2019-05-21T23:11:15.063Z,41.55
2019-05-21T23:13:48.540Z,41.55
2019-05-21T23:16:22.348Z,41.47
2019-05-21T23:19:13.873Z,41.55
2019-05-21T23:21:48.833Z,41.58
2019-05-21T23:24:22.145Z,40.87
2019-05-21T23:26:55.501Z,41.24
2019-05-21T23:29:29.979Z,41.37
2019-05-21T23:32:03.341Z,41.30
2019-05-21T23:34:36.654Z,41.34
2019-05-21T23:37:11.152Z,41.37
2019-05-21T23:39:44.677Z,41.40
2019-05-21T23:42:28.941Z,41.41
2019-05-21T23:44:53.157Z,41.40
2019-05-21T23:47:26.562Z,41.45
2019-05-21T23:49:59.885Z,41.40
2019-05-21T23:52:37.023Z,41.42
2019-05-21T23:55:10.408Z,41.37
2019-05-21T23:57:44.153Z,41.40
